createdAt,value
2019-04-30T00:02:51.607Z,25.16
2019-04-30T00:05:57.362Z,25.16
2019-04-30T00:09:00.222Z,25.18
2019-04-30T00:12:05.542Z,25.14
2019-04-30T00:15:13.917Z,25.13
2019-04-30T00:18:15.640Z,25.13
2019-04-30T00:21:21.093Z,25.12
2019-04-30T00:24:26.617Z,25.11
2019-04-30T00:27:31.166Z,25.12
2019-04-30T00:30:35.036Z,25.09
2019-04-30T00:33:39.833Z,25.10
2019-04-30T00:36:43.266Z,25.11
2019-04-30T00:39:51.147Z,25.10
2019-04-30T00:43:00.235Z,25.10
2019-04-30T00:46:04.923Z,25.10
2019-04-30T00:49:11.204Z,25.08
2019-04-30T00:52:15.235Z,25.07
2019-04-30T00:55:18.697Z,25.08
2019-04-30T00:58:28.802Z,25.05
2019-04-30T01:01:48.042Z,25.07
2019-04-30T01:04:52.666Z,25.03
2019-04-30T01:07:56.384Z,25.05
2019-04-30T01:11:06.473Z,25.07
2019-04-30T01:14:05.455Z,25.01
2019-04-30T01:17:12.384Z,25.03
2019-04-30T01:20:16.133Z,25.03
2019-04-30T01:23:19.648Z,25.03
2019-04-30T01:26:27.679Z,24.99
2019-04-30T01:29:31.097Z,24.99
2019-04-30T01:32:33.847Z,25.01
2019-04-30T01:35:38.223Z,25.01
2019-04-30T01:38:44.810Z,25.00
2019-04-30T01:41:48.842Z,25.00
2019-04-30T01:44:54.012Z,24.98
2019-04-30T01:48:00.740Z,25.00
2019-04-30T01:51:03.848Z,24.99
2019-04-30T01:54:09.160Z,24.96
2019-04-30T01:57:21.925Z,24.98
2019-04-30T02:00:34.413Z,24.97
2019-04-30T02:03:40.073Z,24.97
2019-04-30T02:06:43.552Z,24.96
2019-04-30T02:09:48.922Z,24.92
2019-04-30T02:12:52.518Z,24.94
2019-04-30T02:15:56.046Z,24.93
2019-04-30T02:19:00.553Z,24.94
2019-04-30T02:22:07.017Z,24.94
2019-04-30T02:25:10.483Z,24.92
2019-04-30T02:28:14.938Z,24.91
2019-04-30T02:31:19.337Z,24.91
2019-04-30T02:34:41.128Z,24.92
2019-04-30T02:38:03.555Z,24.90
2019-04-30T02:41:09.795Z,24.91
2019-04-30T02:44:12.594Z,24.90
2019-04-30T02:47:16.096Z,24.89
2019-04-30T02:50:22.588Z,24.90
2019-04-30T02:54:20.274Z,24.90
2019-04-30T02:57:24.123Z,24.90
2019-04-30T03:00:32.533Z,24.84
2019-04-30T03:03:32.770Z,24.86
2019-04-30T03:06:39.783Z,24.84
2019-04-30T03:09:42.658Z,24.86
2019-04-30T03:12:46.140Z,24.84
2019-04-30T03:15:49.647Z,24.84
2019-04-30T03:19:03.410Z,24.84
2019-04-30T03:22:14.290Z,24.83
2019-04-30T03:25:19.827Z,24.86
2019-04-30T03:28:23.308Z,24.84
2019-04-30T03:31:26.845Z,24.83
2019-04-30T03:34:32.900Z,24.82
2019-04-30T03:37:36.688Z,24.79
2019-04-30T03:40:41.860Z,24.79
2019-04-30T03:43:50.152Z,24.78
2019-04-30T03:46:52.536Z,24.78
2019-04-30T03:49:56.049Z,24.81
2019-04-30T03:53:00.764Z,24.80
2019-04-30T03:56:04.348Z,24.80
2019-04-30T03:59:10.564Z,24.79
2019-04-30T04:02:21.061Z,24.78
2019-04-30T04:05:39.739Z,24.77
2019-04-30T04:08:49.034Z,24.79
2019-04-30T04:11:52.683Z,24.78
2019-04-30T04:15:03.307Z,24.76
2019-04-30T04:18:02.435Z,24.78
2019-04-30T04:21:11.313Z,24.77
2019-04-30T04:24:11.183Z,24.77
2019-04-30T04:27:14.674Z,24.75
2019-04-30T04:30:20.461Z,24.75
2019-04-30T04:33:24.135Z,24.73
2019-04-30T04:36:29.939Z,24.73
2019-04-30T04:39:33.278Z,24.74
2019-04-30T04:42:39.711Z,24.74
2019-04-30T04:45:43.791Z,24.73
2019-04-30T04:48:49.376Z,24.72
2019-04-30T04:51:52.955Z,24.73
2019-04-30T04:54:56.451Z,24.74
2019-04-30T04:58:00.172Z,24.72
2019-04-30T05:01:03.541Z,24.71
2019-04-30T05:04:09.217Z,24.70
2019-04-30T05:07:12.448Z,24.72
2019-04-30T05:10:15.895Z,24.70
2019-04-30T05:13:19.339Z,24.69
2019-04-30T05:16:22.838Z,24.72
2019-04-30T05:19:26.297Z,24.70
2019-04-30T05:22:29.801Z,24.71
2019-04-30T05:25:34.716Z,24.69
2019-04-30T05:28:39.394Z,24.72
2019-04-30T05:31:42.870Z,24.67
2019-04-30T05:34:46.358Z,24.68
2019-04-30T05:37:49.919Z,24.68
2019-04-30T05:40:53.447Z,24.69
2019-04-30T05:43:58.999Z,24.68
2019-04-30T05:47:03.126Z,24.68
2019-04-30T05:50:08.668Z,24.68
2019-04-30T05:53:11.857Z,24.66
2019-04-30T05:56:15.507Z,24.67
2019-04-30T05:59:20.649Z,24.65
2019-04-30T06:02:24.322Z,24.67
2019-04-30T06:05:28.829Z,24.67
2019-04-30T06:08:39.830Z,24.66
2019-04-30T06:11:59.616Z,24.64
2019-04-30T06:15:29.110Z,24.64
2019-04-30T06:18:32.717Z,24.68
2019-04-30T06:21:36.205Z,24.64
2019-04-30T06:24:39.808Z,24.66
2019-04-30T06:27:43.305Z,24.63
2019-04-30T06:30:46.819Z,24.63
2019-04-30T06:33:50.350Z,24.63
2019-04-30T06:36:56.792Z,24.61
2019-04-30T06:40:01.009Z,24.63
2019-04-30T06:43:12.641Z,24.74
2019-04-30T06:46:15.986Z,24.76
2019-04-30T06:49:19.541Z,24.79
2019-04-30T06:52:23.737Z,24.81
2019-04-30T06:55:30.597Z,24.82
2019-04-30T06:58:32.651Z,24.82
2019-04-30T07:01:36.147Z,24.87
2019-04-30T07:04:40.680Z,24.87
2019-04-30T07:08:09.056Z,24.86
2019-04-30T07:11:25.023Z,24.85
2019-04-30T07:14:29.486Z,24.85
2019-04-30T07:17:34.037Z,24.85
2019-04-30T07:20:38.740Z,24.84
2019-04-30T07:23:43.453Z,24.88
2019-04-30T07:26:49.002Z,24.88
2019-04-30T07:29:52.514Z,24.86
2019-04-30T07:32:56.029Z,24.90
2019-04-30T07:36:01.743Z,24.88
2019-04-30T07:39:06.312Z,24.89
2019-04-30T07:42:11.963Z,24.87
2019-04-30T07:45:15.546Z,24.93
2019-04-30T07:48:25.877Z,24.93
2019-04-30T07:51:26.367Z,24.93
2019-04-30T07:54:34.360Z,24.94
2019-04-30T07:57:40.391Z,24.95
2019-04-30T08:00:45.208Z,24.94
2019-04-30T08:04:10.643Z,24.94
2019-04-30T08:07:14.347Z,24.97
2019-04-30T08:10:18.819Z,24.98
2019-04-30T08:13:26.139Z,24.96
2019-04-30T08:16:29.753Z,24.96
2019-04-30T08:19:33.173Z,25.00
2019-04-30T08:22:36.671Z,24.98
2019-04-30T08:25:40.199Z,24.98
2019-04-30T08:28:43.698Z,24.97
2019-04-30T08:31:48.933Z,24.99
2019-04-30T08:34:52.524Z,24.98
2019-04-30T08:37:56.007Z,24.97
2019-04-30T08:41:03.662Z,24.97
2019-04-30T08:44:07.170Z,24.96
2019-04-30T08:47:10.711Z,24.97
2019-04-30T08:50:14.330Z,24.95
2019-04-30T08:53:28.941Z,24.95
2019-04-30T08:56:23.128Z,24.98
2019-04-30T08:59:26.584Z,24.98
2019-04-30T09:02:30.184Z,25.01
2019-04-30T09:05:51.617Z,25.02
2019-04-30T09:09:10.748Z,25.00
2019-04-30T09:12:12.233Z,25.01
2019-04-30T09:15:15.730Z,25.03
2019-04-30T09:18:19.310Z,25.01
2019-04-30T09:21:22.773Z,24.99
2019-04-30T09:24:26.216Z,25.04
2019-04-30T09:27:30.626Z,25.05
2019-04-30T09:30:34.065Z,25.03
2019-04-30T09:33:39.352Z,25.05
2019-04-30T09:36:42.883Z,25.06
2019-04-30T09:39:46.388Z,25.07
2019-04-30T09:42:49.932Z,25.08
2019-04-30T09:45:53.393Z,25.11
2019-04-30T09:48:56.794Z,25.12
2019-04-30T09:52:00.519Z,25.11
2019-04-30T09:55:04.309Z,25.15
2019-04-30T09:58:14.893Z,25.16
2019-04-30T10:01:13.158Z,25.18
2019-04-30T10:04:20.188Z,25.19
2019-04-30T10:07:23.097Z,25.17
2019-04-30T10:10:32.400Z,25.25
2019-04-30T10:13:35.979Z,25.27
2019-04-30T10:16:50.239Z,25.30
2019-04-30T10:19:53.818Z,25.34
2019-04-30T10:22:59.576Z,25.30
2019-04-30T10:26:02.987Z,25.29
2019-04-30T10:29:06.783Z,25.33
2019-04-30T10:32:10.287Z,25.34
2019-04-30T10:35:13.802Z,25.38
2019-04-30T10:38:19.388Z,25.36
2019-04-30T10:41:23.663Z,25.35
2019-04-30T10:44:27.172Z,25.36
2019-04-30T10:47:32.683Z,25.36
2019-04-30T10:50:35.995Z,25.37
2019-04-30T10:53:40.526Z,25.37
2019-04-30T10:56:44.020Z,25.35
2019-04-30T10:59:48.706Z,25.39
2019-04-30T11:02:52.313Z,25.42
2019-04-30T11:05:55.751Z,25.42
2019-04-30T11:08:59.250Z,25.43
2019-04-30T11:12:03.224Z,25.45
2019-04-30T11:15:06.829Z,25.44
2019-04-30T11:18:10.642Z,25.53
2019-04-30T11:21:15.573Z,25.55
2019-04-30T11:24:19.686Z,25.58
2019-04-30T11:27:23.999Z,25.61
2019-04-30T11:30:29.769Z,25.63
2019-04-30T11:33:33.583Z,25.62
2019-04-30T11:36:38.941Z,25.63
2019-04-30T11:39:42.480Z,25.66
2019-04-30T11:42:48.029Z,25.70
2019-04-30T11:46:20.719Z,25.65
2019-04-30T11:49:24.396Z,25.64
2019-04-30T11:52:28.008Z,25.65
2019-04-30T11:55:31.514Z,25.66
2019-04-30T11:58:35.008Z,25.72
2019-04-30T12:01:38.989Z,25.76
2019-04-30T12:04:42.414Z,25.78
2019-04-30T12:08:00.971Z,25.79
2019-04-30T12:11:19.853Z,25.82
2019-04-30T12:14:24.265Z,25.80
2019-04-30T12:17:27.763Z,25.82
2019-04-30T12:20:33.574Z,25.84
2019-04-30T12:23:36.731Z,25.86
2019-04-30T12:26:40.321Z,25.89
2019-04-30T12:29:43.805Z,25.92
2019-04-30T12:32:49.234Z,25.90
2019-04-30T12:35:52.645Z,25.93
2019-04-30T12:38:56.159Z,25.92
2019-04-30T12:42:01.965Z,25.95
2019-04-30T12:45:05.034Z,25.96
2019-04-30T12:48:14.876Z,25.93
2019-04-30T12:51:45.623Z,25.96
2019-04-30T12:54:54.549Z,25.98
2019-04-30T12:58:01.129Z,25.99
2019-04-30T13:01:03.645Z,26.02
2019-04-30T13:04:09.637Z,26.09
2019-04-30T13:07:13.284Z,26.10
2019-04-30T13:10:18.061Z,26.13
2019-04-30T13:13:22.369Z,26.14
2019-04-30T13:16:32.103Z,26.15
2019-04-30T13:19:35.672Z,26.17
2019-04-30T13:22:39.268Z,26.18
2019-04-30T13:25:51.240Z,26.23
2019-04-30T13:29:06.951Z,26.23
2019-04-30T13:32:10.426Z,26.25
2019-04-30T13:35:14.209Z,26.27
2019-04-30T13:38:22.633Z,26.25
2019-04-30T13:41:46.116Z,26.27
2019-04-30T13:44:49.506Z,26.28
2019-04-30T13:47:56.181Z,26.32
2019-04-30T13:50:59.686Z,26.33
2019-04-30T13:54:03.252Z,26.35
2019-04-30T13:57:06.700Z,26.36
2019-04-30T14:00:12.135Z,26.37
2019-04-30T14:03:22.938Z,26.40
2019-04-30T14:06:29.163Z,26.41
2019-04-30T14:09:35.650Z,26.40
2019-04-30T14:12:44.064Z,26.41
2019-04-30T14:15:49.046Z,26.46
2019-04-30T14:18:52.739Z,26.50
2019-04-30T14:21:56.253Z,26.48
2019-04-30T14:24:59.703Z,26.44
2019-04-30T14:28:03.252Z,26.47
2019-04-30T14:31:06.847Z,26.40
2019-04-30T14:34:10.417Z,26.43
2019-04-30T14:37:13.940Z,26.48
2019-04-30T14:40:19.955Z,26.48
2019-04-30T14:43:42.788Z,26.52
2019-04-30T14:46:58.366Z,26.52
2019-04-30T14:50:13.310Z,26.54
2019-04-30T14:53:35.942Z,26.56
2019-04-30T14:56:49.391Z,26.55
2019-04-30T15:00:21.660Z,26.57
2019-04-30T15:03:25.494Z,26.60
2019-04-30T15:06:29.287Z,26.61
2019-04-30T15:09:32.759Z,26.60
2019-04-30T15:12:36.277Z,26.59
2019-04-30T15:15:39.865Z,26.61
2019-04-30T15:18:44.325Z,26.62
2019-04-30T15:21:47.824Z,26.64
2019-04-30T15:24:51.286Z,26.66
2019-04-30T15:27:54.806Z,26.65
2019-04-30T15:30:58.714Z,26.66
2019-04-30T15:34:10.791Z,26.66
2019-04-30T15:37:21.568Z,26.67
2019-04-30T15:40:20.415Z,26.68
2019-04-30T15:43:23.986Z,26.67
2019-04-30T15:46:27.591Z,26.61
2019-04-30T15:49:31.186Z,26.61
2019-04-30T15:52:34.817Z,26.63
2019-04-30T15:55:38.386Z,26.62
2019-04-30T15:58:43.626Z,26.63
2019-04-30T16:01:50.225Z,26.62
2019-04-30T16:05:08.985Z,26.62
2019-04-30T16:08:26.064Z,26.61
2019-04-30T16:11:49.211Z,26.61
2019-04-30T16:14:52.718Z,26.63
2019-04-30T16:17:58.843Z,26.62
2019-04-30T16:21:02.204Z,26.63
2019-04-30T16:24:05.802Z,26.63
2019-04-30T16:27:10.449Z,26.63
2019-04-30T16:30:13.876Z,26.62
2019-04-30T16:33:19.488Z,26.61
2019-04-30T16:36:23.345Z,26.62
2019-04-30T16:39:28.779Z,26.62
2019-04-30T16:42:32.544Z,26.62
2019-04-30T16:45:36.257Z,26.61
2019-04-30T16:48:40.210Z,26.59
2019-04-30T16:51:44.047Z,26.61
2019-04-30T16:54:49.577Z,26.53
2019-04-30T16:57:53.471Z,26.49
2019-04-30T17:00:59.194Z,26.47
2019-04-30T17:04:09.150Z,26.43
2019-04-30T17:07:45.029Z,26.44
2019-04-30T17:10:59.507Z,26.44
2019-04-30T17:14:05.790Z,26.40
2019-04-30T17:17:09.300Z,26.39
2019-04-30T17:20:13.174Z,26.38
2019-04-30T17:23:19.117Z,26.37
2019-04-30T17:26:22.216Z,26.37
2019-04-30T17:29:25.736Z,26.32
2019-04-30T17:32:30.371Z,26.30
2019-04-30T17:35:33.807Z,26.30
2019-04-30T17:38:37.457Z,26.27
2019-04-30T17:41:40.926Z,26.28
2019-04-30T17:44:53.936Z,26.21
2019-04-30T17:47:49.767Z,26.23
2019-04-30T17:50:53.181Z,26.22
2019-04-30T17:54:15.326Z,26.21
2019-04-30T17:57:29.767Z,26.23
2019-04-30T18:00:24.599Z,26.17
2019-04-30T18:03:28.950Z,26.16
2019-04-30T18:06:32.413Z,26.22
2019-04-30T18:09:35.829Z,26.24
2019-04-30T18:12:39.311Z,26.21
2019-04-30T18:15:42.779Z,26.19
2019-04-30T18:18:52.242Z,26.21
2019-04-30T18:22:00.042Z,26.18
2019-04-30T18:25:16.510Z,26.17
2019-04-30T18:28:20.041Z,26.17
2019-04-30T18:31:23.464Z,26.21
2019-04-30T18:34:29.152Z,26.12
2019-04-30T18:37:32.288Z,26.07
2019-04-30T18:40:35.823Z,26.05
2019-04-30T18:43:40.501Z,26.08
2019-04-30T18:46:44.121Z,26.13
2019-04-30T18:49:49.389Z,26.09
2019-04-30T18:52:54.161Z,26.04
2019-04-30T18:55:59.190Z,26.03
2019-04-30T18:59:03.038Z,26.05
2019-04-30T19:02:08.636Z,26.05
2019-04-30T19:05:18.026Z,26.03
2019-04-30T19:08:29.420Z,26.08
2019-04-30T19:11:39.506Z,26.01
2019-04-30T19:15:12.562Z,25.98
2019-04-30T19:18:24.408Z,25.97
2019-04-30T19:21:27.882Z,25.97
2019-04-30T19:24:31.287Z,26.04
2019-04-30T19:27:34.747Z,26.09
2019-04-30T19:30:39.002Z,26.07
2019-04-30T19:33:42.485Z,26.08
2019-04-30T19:36:46.173Z,26.09
2019-04-30T19:39:51.103Z,26.08
2019-04-30T19:42:54.815Z,26.08
2019-04-30T19:45:59.205Z,26.09
2019-04-30T19:49:02.897Z,26.09
2019-04-30T19:52:09.385Z,26.12
2019-04-30T19:55:11.687Z,26.13
2019-04-30T19:58:28.520Z,26.10
2019-04-30T20:01:20.651Z,26.12
2019-04-30T20:04:33.400Z,26.12
2019-04-30T20:07:29.749Z,26.11
2019-04-30T20:10:33.375Z,26.10
2019-04-30T20:13:37.453Z,26.12
2019-04-30T20:16:40.926Z,26.03
2019-04-30T20:19:44.409Z,26.03
2019-04-30T20:22:47.924Z,26.01
2019-04-30T20:25:51.399Z,25.99
2019-04-30T20:28:55.947Z,25.97
2019-04-30T20:31:59.451Z,25.96
2019-04-30T20:35:02.945Z,26.00
2019-04-30T20:38:24.156Z,25.93
2019-04-30T20:41:28.675Z,25.83
2019-04-30T20:44:32.245Z,25.79
2019-04-30T20:47:35.674Z,25.78
2019-04-30T20:50:39.285Z,25.76
2019-04-30T20:53:42.790Z,25.76
2019-04-30T20:56:48.341Z,25.75
2019-04-30T20:59:52.471Z,25.71
2019-04-30T21:02:56.184Z,25.69
2019-04-30T21:06:00.657Z,25.69
2019-04-30T21:09:06.046Z,25.67
2019-04-30T21:12:09.509Z,25.66
2019-04-30T21:15:13.128Z,25.62
2019-04-30T21:18:16.564Z,25.62
2019-04-30T21:21:20.534Z,25.60
2019-04-30T21:24:24.078Z,25.58
2019-04-30T21:27:28.285Z,25.60
2019-04-30T21:30:32.705Z,25.59
2019-04-30T21:33:41.314Z,25.56
2019-04-30T21:36:44.878Z,25.52
2019-04-30T21:39:50.072Z,25.51
2019-04-30T21:42:53.646Z,25.54
2019-04-30T21:45:59.346Z,25.53
2019-04-30T21:49:02.603Z,25.50
2019-04-30T21:52:06.215Z,25.45
2019-04-30T21:55:09.762Z,25.46
2019-04-30T21:58:13.214Z,25.47
2019-04-30T22:01:20.322Z,25.47
2019-04-30T22:04:23.783Z,25.44
2019-04-30T22:07:29.343Z,25.43
2019-04-30T22:10:32.627Z,25.45
2019-04-30T22:13:36.128Z,25.40
2019-04-30T22:16:40.671Z,25.42
2019-04-30T22:19:44.206Z,25.40
2019-04-30T22:22:48.984Z,25.39
2019-04-30T22:25:52.602Z,25.36
2019-04-30T22:28:56.101Z,25.38
2019-04-30T22:32:00.635Z,25.37
2019-04-30T22:35:22.053Z,25.35
2019-04-30T22:38:29.174Z,25.35
2019-04-30T22:41:33.970Z,25.33
2019-04-30T22:44:37.601Z,25.32
2019-04-30T22:47:41.079Z,25.34
2019-04-30T22:50:45.570Z,25.32
2019-04-30T22:53:49.994Z,25.31
2019-04-30T22:56:53.616Z,25.31
2019-04-30T22:59:57.124Z,25.28
2019-04-30T23:03:08.375Z,25.27
2019-04-30T23:06:11.896Z,25.27
2019-04-30T23:09:16.675Z,25.25
2019-04-30T23:12:20.099Z,25.27
2019-04-30T23:15:23.546Z,25.25
2019-04-30T23:18:27.124Z,25.25
2019-04-30T23:21:30.538Z,25.24
2019-04-30T23:24:34.129Z,25.24
2019-04-30T23:27:37.659Z,25.21
2019-04-30T23:30:41.178Z,25.22
2019-04-30T23:33:44.640Z,25.22
2019-04-30T23:36:48.160Z,25.22
2019-04-30T23:39:52.783Z,25.20
2019-04-30T23:42:57.412Z,25.20
2019-04-30T23:46:00.888Z,25.19
2019-04-30T23:49:04.391Z,25.16
2019-04-30T23:52:07.803Z,25.18
2019-04-30T23:55:11.389Z,25.16
2019-04-30T23:58:14.897Z,25.16
